• Join FlightAware (Why Join?)
  • Login
  • US Flag 
01:11AM EST


 

Airport Tracker/Info


-or-


 

Live Flight TrackerFlight Track Log ✈ UAL289 ✈ 22-Apr-2013 ✈ KDEN - KSAN

Flight Track Log - Related Links

Times and Time Zones

All times are in EDT time to prevent confusion due to time zone crossing. See the UAL289 flight status page for this flight to view local times or setup timezone preferences in your user account.

Time Position Orientation Groundspeed Altitude Reporting Facility
EDT Latitude Longitude Course Direction KTS MPH feet Rate Location/Type
10:56PM 39.9000 -104.7500 247° West 236 272 9,000  Level Denver TRACON
10:57PM 39.7355 -105.0401 245° Southwest  Level FlightAware Approximate
10:57PM 39.8667 -104.8333 242° Southwest 271 312 10,700  Level Denver TRACON
10:58PM 39.6912 -105.1618 245° Southwest  Level FlightAware Approximate
10:58PM 39.8167 -104.9333 237° Southwest 327 376 12,200  Level Denver TRACON
10:59PM 39.6523 -105.2861 243° Southwest  Level FlightAware Approximate
10:59PM 39.7669 -105.0700 245° Southwest 346 398 15,100  Level Denver Center
11:00PM 39.6045 -105.4054 243° Southwest  Level FlightAware Approximate
11:00PM 39.7217 -105.1864 243° Southwest 363 418 17,300  Level Denver Center
11:01PM 39.5679 -105.5297 247° West  Level FlightAware Approximate
11:01PM 39.6742 -105.3056 243° Southwest 371 427 20,200  Level Denver Center
11:02PM 39.6303 -105.4161 243° Southwest 320 368 22,900 2,040 Climbing Denver Center
11:03PM 39.5881 -105.5233 243° Southwest 322 371 24,500 1,560 Climbing Denver Center
11:04PM 39.5461 -105.6294 243° Southwest 329 379 26,200 1,560 Climbing Denver Center
11:05PM 39.5156 -105.7478 252° West 343 395 27,800 1,680 Climbing Denver Center
11:06PM 39.4850 -105.8631 251° West 336 387 29,700 1,680 Climbing Denver Center
11:07PM 39.4519 -105.9792 250° West 340 391 31,300 1,320 Climbing Denver Center
11:08PM 39.4183 -106.0972 250° West 346 398 32,500 1,260 Climbing Denver Center
11:09PM 39.3828 -106.2244 250° West 355 409 33,900 1,260 Climbing Denver Center
11:10PM 39.3428 -106.3356 245° Southwest 355 409 35,200 1,020 Climbing Denver Center
11:11PM 39.2786 -106.4547 235° Southwest 362 417 36,000 360 Climbing Denver Center
11:12PM 39.2308 -106.5594 240° Southwest 356 410 36,000  Level Denver Center
11:13PM 39.1814 -106.6653 239° Southwest 358 412 36,000  Level Denver Center
11:14PM 39.1183 -106.7883 237° Southwest 366 421 36,000  Level Denver Center
11:15PM 39.0636 -106.8950 237° Southwest 371 427 36,000  Level Denver Center
11:16PM 39.0028 -107.0197 238° Southwest 370 426 36,000 420 Level Denver Center
11:17PM 38.9478 -107.1258 236° Southwest 371 427 36,900 780 Climbing Denver Center
11:18PM 38.8944 -107.2314 237° Southwest 369 425 37,700 480 Climbing Denver Center
11:19PM 38.8328 -107.3533 237° Southwest 367 422 38,000 120 Climbing Denver Center
11:20PM 38.7778 -107.4589 236° Southwest 370 426 38,000  Level Denver Center
11:21PM 38.7153 -107.5811 237° Southwest 368 423 38,000  Level Denver Center
11:22PM 38.6608 -107.6883 237° Southwest 371 427 38,000  Level Denver Center
11:24PM 38.5944 -107.8161 236° Southwest 381 438 38,000  Level Denver Center
11:25PM 38.5286 -107.9425 236° Southwest 382 440 38,000  Level Denver Center
11:26PM 38.4536 -108.0858 236° Southwest 378 435 38,000  Level Denver Center
11:27PM 38.3964 -108.1958 236° Southwest 384 442 38,000  Level Denver Center
11:28PM 38.3300 -108.3217 236° Southwest 382 440 38,000  Level Denver Center
11:29PM 38.2719 -108.4297 236° Southwest 383 441 38,000  Level Denver Center
11:30PM 38.2067 -108.5553 237° Southwest 381 438 38,000  Level Denver Center
11:31PM 38.1500 -108.6619 236° Southwest 380 437 38,000  Level Denver Center
11:32PM 38.0933 -108.7686 236° Southwest 379 436 38,000  Level Denver Center
11:33PM 38.0289 -108.8883 236° Southwest 381 438 38,000  Level Denver Center
11:34PM 37.9717 -108.9944 236° Southwest 380 437 38,000  Level Denver Center
11:35PM 37.9050 -109.1197 236° Southwest 383 441 38,000  Level Denver Center
11:36PM 37.8469 -109.2258 235° Southwest 383 441 38,000  Level Denver Center
11:37PM 37.7797 -109.3508 236° Southwest 385 443 38,000  Level Denver Center
11:38PM 37.7203 -109.4575 235° Southwest 387 445 38,000  Level Denver Center
11:39PM 37.6614 -109.5664 236° Southwest 392 451 38,000  Level Denver Center
11:40PM 37.5911 -109.6947 235° Southwest 398 458 38,000  Level Denver Center
11:41PM 37.5292 -109.8064 235° Southwest 406 467 38,000  Level Denver Center
11:42PM 37.4567 -109.9372 235° Southwest 407 468 38,000  Level Denver Center
11:43PM 37.3936 -110.0489 235° Southwest 408 470 38,000  Level Denver Center
11:44PM 37.3231 -110.1769 235° Southwest 402 463 38,000  Level Denver Center
11:45PM 37.2642 -110.2831 235° Southwest 399 459 38,000  Level Denver Center
11:46PM 37.2000 -110.3969 235° Southwest 399 459 38,000  Level Denver Center
11:47PM 37.1369 -110.5092 235° Southwest 395 455 38,000  Level Denver Center
11:48PM 37.0742 -110.6208 235° Southwest 392 451 38,000  Level Denver Center
11:49PM 37.0117 -110.7308 235° Southwest 389 448 38,000  Level Denver Center
11:50PM 36.9364 -110.8639 235° Southwest 390 449 38,000  Level Denver Center
11:51PM 36.8719 -110.9767 234° Southwest 396 456 38,000  Level Denver Center
11:52PM 36.8089 -111.0892 235° Southwest 397 457 38,000  Level Denver Center
11:54PM 36.7447 -111.2014 235° Southwest 397 457 38,000  Level Denver Center
11:55PM 36.6767 -111.3175 234° Southwest 405 466 38,000  Level Denver Center
11:56PM 36.6092 -111.4333 234° Southwest 411 473 38,000  Level Denver Center
11:57PM 36.5419 -111.5497 234° Southwest 412 474 38,000  Level Denver Center
11:58PM 36.4747 -111.6669 235° Southwest 415 478 38,000  Level Denver Center
11:59PM 36.4044 -111.7833 233° Southwest 419 482 38,000  Level Denver Center
12:00AM 36.3361 -111.9008 234° Southwest 419 482 38,000  Level Denver Center
12:00AM 36.3083 -111.9464 233° Southwest 414 476 38,000  Level Los Angeles Center
12:01AM 36.2417 -112.0614 234° Southwest 411 473 38,000  Level Los Angeles Center
12:02AM 36.1758 -112.1719 234° Southwest 419 482 38,000  Level Los Angeles Center
12:03AM 36.1028 -112.2942 234° Southwest 419 482 38,000  Level Los Angeles Center
12:04AM 36.0331 -112.4111 234° Southwest 422 486 38,000  Level Los Angeles Center
12:05AM 35.9633 -112.5294 234° Southwest 425 489 38,000  Level Los Angeles Center
12:06AM 35.8850 -112.6583 233° Southwest 425 489 38,000  Level Los Angeles Center
12:07AM 35.8031 -112.7950 234° Southwest 417 480 38,000  Level Los Angeles Center
12:08AM 35.7353 -112.9075 233° Southwest 415 478 38,000  Level Los Angeles Center
12:09AM 35.6592 -113.0306 233° Southwest 412 474 38,000  Level Los Angeles Center
12:10AM 35.5925 -113.1425 234° Southwest 407 468 38,000  Level Los Angeles Center
12:11AM 35.5247 -113.2542 233° Southwest 406 467 38,000  Level Los Angeles Center
12:12AM 35.4542 -113.3700 233° Southwest 410 472 38,000  Level Los Angeles Center
12:13AM 35.3856 -113.4822 233° Southwest 414 476 38,000  Level Los Angeles Center
12:14AM 35.3161 -113.5950 233° Southwest 417 480 38,000  Level Los Angeles Center
12:15AM 35.2469 -113.7064 233° Southwest 416 479 38,000 -240 Level Los Angeles Center
12:16AM 35.1767 -113.8200 233° Southwest 418 481 37,600 -840 Descending Los Angeles Center
12:18AM 35.0917 -113.9561 233° Southwest 416 479 36,400 -1,320 Descending Los Angeles Center
12:19AM 35.0208 -114.0697 233° Southwest 420 483 34,900 -1,560 Descending Los Angeles Center
12:20AM 34.9469 -114.1853 232° Southwest 431 496 33,300 -1,500 Descending Los Angeles Center
12:21AM 34.8742 -114.3017 233° Southwest 433 498 31,900 -1,380 Descending Los Angeles Center
12:22AM 34.7997 -114.4189 232° Southwest 438 504 30,500 -960 Descending Los Angeles Center
12:23AM 34.7192 -114.5286 228° Southwest 436 502 30,000 -300 Descending Los Angeles Center
12:24AM 34.6267 -114.6306 222° Southwest 434 499 30,000 -60 Level Los Angeles Center
12:25AM 34.5378 -114.7328 223° Southwest 439 505 29,900  Descending Los Angeles Center
12:26AM 34.4489 -114.8342 223° Southwest 441 507 30,000  Climbing Los Angeles Center
12:27AM 34.3589 -114.9358 223° Southwest 443 510 29,900  Descending Los Angeles Center
12:28AM 34.2697 -115.0375 223° Southwest 441 507 30,000  Climbing Los Angeles Center
12:29AM 34.1797 -115.1383 223° Southwest 441 507 29,900  Descending Los Angeles Center
12:30AM 34.0725 -115.2597 223° Southwest 442 509 30,000  Climbing Los Angeles Center
12:31AM 33.9822 -115.3597 223° Southwest 441 507 30,000 -60 Level Los Angeles Center
12:32AM 33.8919 -115.4603 223° Southwest 442 509 29,900 -300 Descending Los Angeles Center
12:33AM 33.8033 -115.5606 223° Southwest 439 505 29,400 -840 Descending Los Angeles Center
12:34AM 33.7131 -115.6603 223° Southwest 440 506 28,200 -1,500 Descending Los Angeles Center
12:35AM 33.6247 -115.7575 223° Southwest 435 501 26,400 -1,860 Descending Los Angeles Center
12:36AM 33.5569 -115.8667 233° Southwest 414 476 24,500 -1,680 Descending Los Angeles Center
12:37AM 33.4761 -115.9636 225° Southwest 409 471 23,000 -1,500 Descending Los Angeles Center
12:38AM 33.3889 -116.0506 220° Southwest 409 471 21,500 -1,560 Descending Los Angeles Center
12:39AM 33.3053 -116.1381 221° Southwest 404 465 19,900 -1,980 Descending Los Angeles Center
12:40AM 33.1917 -116.2556 221° Southwest 390 449 17,100 -2,340 Descending Los Angeles Center
12:41AM 33.1133 -116.3350 220° Southwest 379 436 14,800 -2,160 Descending Los Angeles Center
12:42AM 33.0419 -116.4072 220° Southwest 371 427 12,700 -1,740 Descending Los Angeles Center
12:43AM 32.9594 -116.4706 213° Southwest 357 411 11,300 -1,200 Descending Los Angeles Center
12:44AM 32.8758 -116.5164 205° Southwest 334 384 10,300 -1,020 Descending Los Angeles Center
12:45AM 32.8028 -116.5592 206° Southwest 303 349 9,300 -1,020 Descending Los Angeles Center
12:46AM 32.7181 -116.6053 205° Southwest 290 334 8,300 -1,200 Descending Los Angeles Center
12:47AM 32.6592 -116.6575 217° Southwest 283 326 6,900 -1,200 Descending Los Angeles Center
12:48AM 32.6603 -116.7425 271° West 268 308 5,900 -720 Descending Los Angeles Center
12:49AM 32.6658 -116.8183 275° West 251 289 5,500 -480 Descending Los Angeles Center
12:50AM 32.6667 -116.8833 271° West 213 245 5,000 -780 Descending Southern California TRACON
12:51AM 32.6833 -116.9500 287° West 185 213 4,000 -1,020 Descending Southern California TRACON
12:53AM 32.7000 -117.0667 280° West 191 220 1,900 -1,020 Descending Southern California TRACON
12:54AM 32.7167 -117.1167 292° West 150 173 1,000 -780 Descending Southern California TRACON
12:55AM 32.7333 -117.1667 292° West 132 152 400 -600 Descending Southern California TRACON